sensor_id;sensor_type;location;lat;lon;timestamp;temperature;humidity
22674;DHT22;11504;43.334;21.918;2023-04-03T00:01:28;10.3;100.0
22674;DHT22;11504;43.334;21.918;2023-04-03T00:06:05;10.3;100.0
22674;DHT22;11504;43.334;21.918;2023-04-03T00:10:43;10.2;100.0
22674;DHT22;11504;43.334;21.918;2023-04-03T00:15:20;10.2;100.0
22674;DHT22;11504;43.334;21.918;2023-04-03T00:19:56;10.2;100.0
22674;DHT22;11504;43.334;21.918;2023-04-03T00:24:33;10.2;100.0
22674;DHT22;11504;43.334;21.918;2023-04-03T00:29:10;10.2;100.0
22674;DHT22;11504;43.334;21.918;2023-04-03T00:33:46;10.2;100.0
22674;DHT22;11504;43.334;21.918;2023-04-03T00:38:23;10.2;100.0
22674;DHT22;11504;43.334;21.918;2023-04-03T00:43:13;10.2;100.0
22674;DHT22;11504;43.334;21.918;2023-04-03T00:47:57;10.1;100.0
22674;DHT22;11504;43.334;21.918;2023-04-03T00:52:41;10.1;100.0
22674;DHT22;11504;43.334;21.918;2023-04-03T00:57:19;10.0;100.0
22674;DHT22;11504;43.334;21.918;2023-04-03T01:01:58;10.0;100.0
22674;DHT22;11504;43.334;21.918;2023-04-03T01:06:37;10.0;100.0
22674;DHT22;11504;43.334;21.918;2023-04-03T01:11:13;10.0;100.0
22674;DHT22;11504;43.334;21.918;2023-04-03T01:15:51;10.0;100.0
22674;DHT22;11504;43.334;21.918;2023-04-03T01:22:19;10.0;100.0
22674;DHT22;11504;43.334;21.918;2023-04-03T01:27:03;10.0;100.0
22674;DHT22;11504;43.334;21.918;2023-04-03T01:31:49;9.8;100.0
22674;DHT22;11504;43.334;21.918;2023-04-03T01:36:32;9.8;100.0
22674;DHT22;11504;43.334;21.918;2023-04-03T01:41:09;9.7;100.0
22674;DHT22;11504;43.334;21.918;2023-04-03T01:45:46;9.7;100.0
22674;DHT22;11504;43.334;21.918;2023-04-03T01:50:23;9.6;100.0
22674;DHT22;11504;43.334;21.918;2023-04-03T01:55:00;9.6;100.0
22674;DHT22;11504;43.334;21.918;2023-04-03T01:59:37;9.4;100.0
22674;DHT22;11504;43.334;21.918;2023-04-03T02:04:14;9.4;100.0
22674;DHT22;11504;43.334;21.918;2023-04-03T02:08:51;9.4;100.0
22674;DHT22;11504;43.334;21.918;2023-04-03T02:13:28;9.4;100.0
22674;DHT22;11504;43.334;21.918;2023-04-03T02:18:05;9.5;100.0
22674;DHT22;11504;43.334;21.918;2023-04-03T02:22:45;9.5;100.0
22674;DHT22;11504;43.334;21.918;2023-04-03T02:27:23;9.4;100.0
22674;DHT22;11504;43.334;21.918;2023-04-03T02:32:00;9.4;100.0
22674;DHT22;11504;43.334;21.918;2023-04-03T02:36:37;9.4;100.0
22674;DHT22;11504;43.334;21.918;2023-04-03T02:41:14;9.3;100.0
22674;DHT22;11504;43.334;21.918;2023-04-03T02:45:51;9.3;100.0
22674;DHT22;11504;43.334;21.918;2023-04-03T02:50:27;9.2;100.0
22674;DHT22;11504;43.334;21.918;2023-04-03T02:55:05;9.2;100.0
22674;DHT22;11504;43.334;21.918;2023-04-03T02:59:43;9.1;100.0
22674;DHT22;11504;43.334;21.918;2023-04-03T03:04:20;9.1;100.0
22674;DHT22;11504;43.334;21.918;2023-04-03T03:08:57;9.0;100.0
22674;DHT22;11504;43.334;21.918;2023-04-03T03:13:35;9.0;100.0
22674;DHT22;11504;43.334;21.918;2023-04-03T03:18:13;8.9;100.0
22674;DHT22;11504;43.334;21.918;2023-04-03T03:22:50;8.9;100.0
22674;DHT22;11504;43.334;21.918;2023-04-03T03:27:27;9.0;100.0
22674;DHT22;11504;43.334;21.918;2023-04-03T03:32:04;9.0;100.0
22674;DHT22;11504;43.334;21.918;2023-04-03T03:36:41;9.0;100.0
22674;DHT22;11504;43.334;21.918;2023-04-03T03:41:18;9.0;100.0
22674;DHT22;11504;43.334;21.918;2023-04-03T03:45:55;9.0;100.0
22674;DHT22;11504;43.334;21.918;2023-04-03T03:50:31;9.0;100.0
22674;DHT22;11504;43.334;21.918;2023-04-03T03:55:09;9.0;100.0
22674;DHT22;11504;43.334;21.918;2023-04-03T03:59:45;8.9;100.0
22674;DHT22;11504;43.334;21.918;2023-04-03T04:04:21;8.9;100.0
22674;DHT22;11504;43.334;21.918;2023-04-03T04:08:58;8.9;100.0
22674;DHT22;11504;43.334;21.918;2023-04-03T04:13:34;8.9;100.0
22674;DHT22;11504;43.334;21.918;2023-04-03T04:18:11;8.9;100.0
22674;DHT22;11504;43.334;21.918;2023-04-03T04:22:48;8.9;100.0
22674;DHT22;11504;43.334;21.918;2023-04-03T04:27:25;8.9;100.0
22674;DHT22;11504;43.334;21.918;2023-04-03T04:32:02;8.9;100.0
22674;DHT22;11504;43.334;21.918;2023-04-03T04:36:41;8.9;100.0
22674;DHT22;11504;43.334;21.918;2023-04-03T04:41:19;8.9;100.0
22674;DHT22;11504;43.334;21.918;2023-04-03T04:46:04;8.9;100.0
22674;DHT22;11504;43.334;21.918;2023-04-03T04:50:46;10.2;100.0
22674;DHT22;11504;43.334;21.918;2023-04-03T04:55:23;10.2;100.0
22674;DHT22;11504;43.334;21.918;2023-04-03T05:00:00;11.5;100.0
22674;DHT22;11504;43.334;21.918;2023-04-03T05:04:36;11.5;100.0
22674;DHT22;11504;43.334;21.918;2023-04-03T05:09:13;12.1;100.0
22674;DHT22;11504;43.334;21.918;2023-04-03T05:13:50;12.1;100.0
22674;DHT22;11504;43.334;21.918;2023-04-03T05:18:26;12.7;100.0
22674;DHT22;11504;43.334;21.918;2023-04-03T05:23:03;12.7;100.0
22674;DHT22;11504;43.334;21.918;2023-04-03T05:27:40;12.7;100.0
22674;DHT22;11504;43.334;21.918;2023-04-03T05:32:16;12.7;100.0
22674;DHT22;11504;43.334;21.918;2023-04-03T05:36:53;12.7;100.0
22674;DHT22;11504;43.334;21.918;2023-04-03T05:41:29;12.7;100.0
22674;DHT22;11504;43.334;21.918;2023-04-03T05:46:11;12.7;100.0
22674;DHT22;11504;43.334;21.918;2023-04-03T05:50:55;15.1;100.0
22674;DHT22;11504;43.334;21.918;2023-04-03T05:55:34;15.1;100.0
22674;DHT22;11504;43.334;21.918;2023-04-03T06:00:14;17.5;100.0
22674;DHT22;11504;43.334;21.918;2023-04-03T06:04:55;17.5;100.0
22674;DHT22;11504;43.334;21.918;2023-04-03T06:09:32;18.0;100.0
22674;DHT22;11504;43.334;21.918;2023-04-03T06:14:10;18.0;100.0
22674;DHT22;11504;43.334;21.918;2023-04-03T06:18:48;18.5;100.0
22674;DHT22;11504;43.334;21.918;2023-04-03T06:23:25;18.5;100.0
22674;DHT22;11504;43.334;21.918;2023-04-03T06:28:02;17.3;100.0
22674;DHT22;11504;43.334;21.918;2023-04-03T06:32:38;17.3;100.0
22674;DHT22;11504;43.334;21.918;2023-04-03T06:37:17;17.3;100.0
22674;DHT22;11504;43.334;21.918;2023-04-03T06:41:56;16.1;100.0
22674;DHT22;11504;43.334;21.918;2023-04-03T06:46:32;16.1;100.0
22674;DHT22;11504;43.334;21.918;2023-04-03T06:51:19;17.0;100.0
22674;DHT22;11504;43.334;21.918;2023-04-03T06:55:57;17.0;100.0
22674;DHT22;11504;43.334;21.918;2023-04-03T07:00:34;18.0;100.0
22674;DHT22;11504;43.334;21.918;2023-04-03T07:05:11;18.0;100.0
22674;DHT22;11504;43.334;21.918;2023-04-03T07:09:49;18.9;100.0
22674;DHT22;11504;43.334;21.918;2023-04-03T07:14:26;18.9;100.0
22674;DHT22;11504;43.334;21.918;2023-04-03T07:19:03;19.8;100.0
22674;DHT22;11504;43.334;21.918;2023-04-03T07:23:40;19.8;100.0
22674;DHT22;11504;43.334;21.918;2023-04-03T07:28:20;19.8;100.0
22674;DHT22;11504;43.334;21.918;2023-04-03T07:33:00;19.8;100.0
22674;DHT22;11504;43.334;21.918;2023-04-03T07:37:36;19.9;100.0
22674;DHT22;11504;43.334;21.918;2023-04-03T07:42:13;19.9;100.0
22674;DHT22;11504;43.334;21.918;2023-04-03T07:46:50;19.9;100.0
22674;DHT22;11504;43.334;21.918;2023-04-03T07:51:28;20.5;100.0
22674;DHT22;11504;43.334;21.918;2023-04-03T07:56:06;20.5;100.0
22674;DHT22;11504;43.334;21.918;2023-04-03T08:00:45;21.1;100.0
22674;DHT22;11504;43.334;21.918;2023-04-03T08:05:24;21.1;100.0
22674;DHT22;11504;43.334;21.918;2023-04-03T08:10:01;20.0;100.0
22674;DHT22;11504;43.334;21.918;2023-04-03T08:14:37;20.0;100.0
22674;DHT22;11504;43.334;21.918;2023-04-03T08:19:16;18.8;100.0
22674;DHT22;11504;43.334;21.918;2023-04-03T08:23:53;18.8;100.0
22674;DHT22;11504;43.334;21.918;2023-04-03T08:28:30;17.8;100.0
22674;DHT22;11504;43.334;21.918;2023-04-03T08:33:09;17.8;100.0
22674;DHT22;11504;43.334;21.918;2023-04-03T08:37:46;16.9;100.0
22674;DHT22;11504;43.334;21.918;2023-04-03T08:42:46;16.9;100.0
22674;DHT22;11504;43.334;21.918;2023-04-03T08:48:29;15.8;100.0
22674;DHT22;11504;43.334;21.918;2023-04-03T08:53:25;15.8;100.0
22674;DHT22;11504;43.334;21.918;2023-04-03T08:58:19;14.8;100.0
22674;DHT22;11504;43.334;21.918;2023-04-03T09:03:01;14.8;100.0
22674;DHT22;11504;43.334;21.918;2023-04-03T09:07:44;14.7;100.0
22674;DHT22;11504;43.334;21.918;2023-04-03T09:12:35;14.7;100.0
22674;DHT22;11504;43.334;21.918;2023-04-03T09:17:35;14.7;100.0
22674;DHT22;11504;43.334;21.918;2023-04-03T09:22:25;14.6;100.0
22674;DHT22;11504;43.334;21.918;2023-04-03T09:27:09;14.6;100.0
22674;DHT22;11504;43.334;21.918;2023-04-03T09:31:50;14.6;100.0
22674;DHT22;11504;43.334;21.918;2023-04-03T09:36:42;14.6;100.0
22674;DHT22;11504;43.334;21.918;2023-04-03T09:41:21;14.5;100.0
22674;DHT22;11504;43.334;21.918;2023-04-03T09:46:25;14.5;100.0
22674;DHT22;11504;43.334;21.918;2023-04-03T09:51:15;14.1;100.0
22674;DHT22;11504;43.334;21.918;2023-04-03T09:55:52;14.1;100.0
22674;DHT22;11504;43.334;21.918;2023-04-03T10:00:35;13.7;100.0
22674;DHT22;11504;43.334;21.918;2023-04-03T10:05:37;13.7;100.0
22674;DHT22;11504;43.334;21.918;2023-04-03T10:10:22;13.8;100.0
22674;DHT22;11504;43.334;21.918;2023-04-03T10:15:00;13.8;100.0
22674;DHT22;11504;43.334;21.918;2023-04-03T10:19:57;13.8;100.0
22674;DHT22;11504;43.334;21.918;2023-04-03T10:25:21;13.8;100.0
22674;DHT22;11504;43.334;21.918;2023-04-03T10:30:36;14.0;100.0
22674;DHT22;11504;43.334;21.918;2023-04-03T10:35:50;14.0;100.0
22674;DHT22;11504;43.334;21.918;2023-04-03T10:41:07;14.2;100.0
22674;DHT22;11504;43.334;21.918;2023-04-03T10:46:06;14.2;100.0
22674;DHT22;11504;43.334;21.918;2023-04-03T10:51:01;13.5;100.0
22674;DHT22;11504;43.334;21.918;2023-04-03T10:56:08;13.5;100.0
22674;DHT22;11504;43.334;21.918;2023-04-03T11:01:07;12.8;100.0
22674;DHT22;11504;43.334;21.918;2023-04-03T11:06:05;12.8;100.0
22674;DHT22;11504;43.334;21.918;2023-04-03T11:11:00;12.6;100.0
22674;DHT22;11504;43.334;21.918;2023-04-03T11:15:58;12.6;100.0
22674;DHT22;11504;43.334;21.918;2023-04-03T11:20:47;12.3;100.0
22674;DHT22;11504;43.334;21.918;2023-04-03T11:26:08;12.3;100.0
22674;DHT22;11504;43.334;21.918;2023-04-03T11:31:19;12.1;100.0
22674;DHT22;11504;43.334;21.918;2023-04-03T11:37:13;12.1;100.0
22674;DHT22;11504;43.334;21.918;2023-04-03T11:42:25;11.9;100.0
22674;DHT22;11504;43.334;21.918;2023-04-03T11:47:47;11.9;100.0
22674;DHT22;11504;43.334;21.918;2023-04-03T11:53:26;11.9;100.0
22674;DHT22;11504;43.334;21.918;2023-04-03T11:58:16;11.8;100.0
22674;DHT22;11504;43.334;21.918;2023-04-03T12:02:53;11.8;100.0
22674;DHT22;11504;43.334;21.918;2023-04-03T12:07:29;11.8;100.0
22674;DHT22;11504;43.334;21.918;2023-04-03T12:12:32;11.9;100.0
22674;DHT22;11504;43.334;21.918;2023-04-03T12:17:25;11.9;100.0
22674;DHT22;11504;43.334;21.918;2023-04-03T12:22:13;11.9;100.0
22674;DHT22;11504;43.334;21.918;2023-04-03T12:27:23;11.9;100.0
22674;DHT22;11504;43.334;21.918;2023-04-03T12:32:35;11.7;100.0
22674;DHT22;11504;43.334;21.918;2023-04-03T12:38:58;11.5;100.0
22674;DHT22;11504;43.334;21.918;2023-04-03T12:44:38;11.5;100.0
22674;DHT22;11504;43.334;21.918;2023-04-03T12:49:46;11.3;100.0
22674;DHT22;11504;43.334;21.918;2023-04-03T12:54:36;11.3;100.0
22674;DHT22;11504;43.334;21.918;2023-04-03T12:59:21;11.1;100.0
22674;DHT22;11504;43.334;21.918;2023-04-03T13:04:02;11.1;100.0
22674;DHT22;11504;43.334;21.918;2023-04-03T13:08:50;10.9;100.0
22674;DHT22;11504;43.334;21.918;2023-04-03T13:13:29;10.9;100.0
22674;DHT22;11504;43.334;21.918;2023-04-03T13:18:05;10.7;100.0
22674;DHT22;11504;43.334;21.918;2023-04-03T13:23:02;10.7;100.0
22674;DHT22;11504;43.334;21.918;2023-04-03T13:27:44;10.7;100.0
22674;DHT22;11504;43.334;21.918;2023-04-03T13:32:26;10.6;100.0
22674;DHT22;11504;43.334;21.918;2023-04-03T13:37:23;10.6;100.0
22674;DHT22;11504;43.334;21.918;2023-04-03T13:42:24;10.5;100.0
22674;DHT22;11504;43.334;21.918;2023-04-03T13:47:20;10.5;100.0
22674;DHT22;11504;43.334;21.918;2023-04-03T13:52:17;10.4;100.0
22674;DHT22;11504;43.334;21.918;2023-04-03T13:57:16;10.4;100.0
22674;DHT22;11504;43.334;21.918;2023-04-03T14:02:14;10.2;100.0
22674;DHT22;11504;43.334;21.918;2023-04-03T14:07:05;10.2;100.0
22674;DHT22;11504;43.334;21.918;2023-04-03T14:11:43;10.0;100.0
22674;DHT22;11504;43.334;21.918;2023-04-03T14:16:31;10.0;100.0
22674;DHT22;11504;43.334;21.918;2023-04-03T14:21:21;9.8;100.0
22674;DHT22;11504;43.334;21.918;2023-04-03T14:25:59;9.8;100.0
22674;DHT22;11504;43.334;21.918;2023-04-03T14:30:36;9.7;100.0
22674;DHT22;11504;43.334;21.918;2023-04-03T14:35:13;9.7;100.0
22674;DHT22;11504;43.334;21.918;2023-04-03T14:39:52;9.6;100.0
22674;DHT22;11504;43.334;21.918;2023-04-03T14:44:29;9.6;100.0
22674;DHT22;11504;43.334;21.918;2023-04-03T14:49:15;9.6;100.0
22674;DHT22;11504;43.334;21.918;2023-04-03T14:53:57;9.6;100.0
22674;DHT22;11504;43.334;21.918;2023-04-03T14:58:33;9.7;100.0
22674;DHT22;11504;43.334;21.918;2023-04-03T15:03:14;9.7;100.0
22674;DHT22;11504;43.334;21.918;2023-04-03T15:07:58;9.8;100.0
22674;DHT22;11504;43.334;21.918;2023-04-03T15:12:36;9.8;100.0
22674;DHT22;11504;43.334;21.918;2023-04-03T15:17:19;9.8;100.0
22674;DHT22;11504;43.334;21.918;2023-04-03T15:21:59;9.8;100.0
22674;DHT22;11504;43.334;21.918;2023-04-03T15:26:37;9.8;100.0
22674;DHT22;11504;43.334;21.918;2023-04-03T15:31:14;9.8;100.0
22674;DHT22;11504;43.334;21.918;2023-04-03T15:35:51;9.8;100.0
22674;DHT22;11504;43.334;21.918;2023-04-03T15:40:28;9.7;100.0
22674;DHT22;11504;43.334;21.918;2023-04-03T15:45:07;9.7;100.0
22674;DHT22;11504;43.334;21.918;2023-04-03T15:49:46;9.6;100.0
22674;DHT22;11504;43.334;21.918;2023-04-03T15:54:23;9.6;100.0
22674;DHT22;11504;43.334;21.918;2023-04-03T15:58:59;9.6;100.0
22674;DHT22;11504;43.334;21.918;2023-04-03T16:03:35;9.6;100.0
22674;DHT22;11504;43.334;21.918;2023-04-03T16:08:12;9.5;100.0
22674;DHT22;11504;43.334;21.918;2023-04-03T16:12:50;9.5;100.0
22674;DHT22;11504;43.334;21.918;2023-04-03T16:17:27;9.5;100.0
22674;DHT22;11504;43.334;21.918;2023-04-03T16:22:04;9.4;100.0
22674;DHT22;11504;43.334;21.918;2023-04-03T16:26:41;9.4;100.0
22674;DHT22;11504;43.334;21.918;2023-04-03T16:31:19;9.5;100.0
22674;DHT22;11504;43.334;21.918;2023-04-03T16:36:04;9.5;100.0
22674;DHT22;11504;43.334;21.918;2023-04-03T16:40:42;9.6;100.0
22674;DHT22;11504;43.334;21.918;2023-04-03T16:45:20;9.6;100.0
22674;DHT22;11504;43.334;21.918;2023-04-03T16:49:57;9.7;100.0
22674;DHT22;11504;43.334;21.918;2023-04-03T16:54:34;9.7;100.0
22674;DHT22;11504;43.334;21.918;2023-04-03T16:59:11;9.8;100.0
22674;DHT22;11504;43.334;21.918;2023-04-03T17:03:48;9.8;100.0
22674;DHT22;11504;43.334;21.918;2023-04-03T17:08:25;9.8;100.0
22674;DHT22;11504;43.334;21.918;2023-04-03T17:13:01;9.8;100.0
22674;DHT22;11504;43.334;21.918;2023-04-03T17:17:37;9.8;100.0
22674;DHT22;11504;43.334;21.918;2023-04-03T17:22:13;9.8;100.0
22674;DHT22;11504;43.334;21.918;2023-04-03T17:26:50;9.8;100.0
22674;DHT22;11504;43.334;21.918;2023-04-03T17:31:26;9.8;100.0
22674;DHT22;11504;43.334;21.918;2023-04-03T17:36:04;9.8;100.0
22674;DHT22;11504;43.334;21.918;2023-04-03T17:40:43;9.8;100.0
22674;DHT22;11504;43.334;21.918;2023-04-03T17:45:20;9.8;100.0
22674;DHT22;11504;43.334;21.918;2023-04-03T17:49:57;9.7;100.0
22674;DHT22;11504;43.334;21.918;2023-04-03T17:54:33;9.7;100.0
22674;DHT22;11504;43.334;21.918;2023-04-03T17:59:10;9.6;100.0
22674;DHT22;11504;43.334;21.918;2023-04-03T18:03:52;9.6;100.0
22674;DHT22;11504;43.334;21.918;2023-04-03T18:08:41;9.6;100.0
22674;DHT22;11504;43.334;21.918;2023-04-03T18:13:31;9.6;100.0
22674;DHT22;11504;43.334;21.918;2023-04-03T18:18:09;9.5;100.0
22674;DHT22;11504;43.334;21.918;2023-04-03T18:22:47;9.5;100.0
22674;DHT22;11504;43.334;21.918;2023-04-03T18:27:27;9.5;100.0
22674;DHT22;11504;43.334;21.918;2023-04-03T18:32:09;9.5;100.0
22674;DHT22;11504;43.334;21.918;2023-04-03T18:36:55;9.5;100.0
22674;DHT22;11504;43.334;21.918;2023-04-03T18:41:35;9.5;100.0
22674;DHT22;11504;43.334;21.918;2023-04-03T18:46:14;9.5;100.0
22674;DHT22;11504;43.334;21.918;2023-04-03T18:50:51;9.6;100.0
22674;DHT22;11504;43.334;21.918;2023-04-03T18:55:28;9.6;100.0
22674;DHT22;11504;43.334;21.918;2023-04-03T19:00:07;9.6;100.0
22674;DHT22;11504;43.334;21.918;2023-04-03T19:04:47;9.6;100.0
22674;DHT22;11504;43.334;21.918;2023-04-03T19:09:26;9.6;100.0
22674;DHT22;11504;43.334;21.918;2023-04-03T19:14:04;9.6;100.0
22674;DHT22;11504;43.334;21.918;2023-04-03T19:18:42;9.5;100.0
22674;DHT22;11504;43.334;21.918;2023-04-03T19:23:18;9.5;100.0
22674;DHT22;11504;43.334;21.918;2023-04-03T19:27:55;9.5;100.0
22674;DHT22;11504;43.334;21.918;2023-04-03T19:32:31;9.4;100.0
22674;DHT22;11504;43.334;21.918;2023-04-03T19:37:08;9.4;100.0
22674;DHT22;11504;43.334;21.918;2023-04-03T19:41:45;9.4;100.0
22674;DHT22;11504;43.334;21.918;2023-04-03T19:46:23;9.4;100.0
22674;DHT22;11504;43.334;21.918;2023-04-03T19:51:04;9.4;100.0
22674;DHT22;11504;43.334;21.918;2023-04-03T19:55:40;9.4;100.0
22674;DHT22;11504;43.334;21.918;2023-04-03T20:00:18;9.3;100.0
22674;DHT22;11504;43.334;21.918;2023-04-03T20:04:55;9.3;100.0
22674;DHT22;11504;43.334;21.918;2023-04-03T20:09:31;9.4;100.0
22674;DHT22;11504;43.334;21.918;2023-04-03T20:14:07;9.4;100.0
22674;DHT22;11504;43.334;21.918;2023-04-03T20:18:44;9.5;100.0
22674;DHT22;11504;43.334;21.918;2023-04-03T20:23:21;9.5;100.0
22674;DHT22;11504;43.334;21.918;2023-04-03T20:27:59;9.5;100.0
22674;DHT22;11504;43.334;21.918;2023-04-03T20:32:35;9.5;100.0
22674;DHT22;11504;43.334;21.918;2023-04-03T20:37:12;9.5;100.0
22674;DHT22;11504;43.334;21.918;2023-04-03T20:41:49;9.5;100.0
22674;DHT22;11504;43.334;21.918;2023-04-03T20:46:26;9.5;100.0
22674;DHT22;11504;43.334;21.918;2023-04-03T20:51:14;9.5;100.0
22674;DHT22;11504;43.334;21.918;2023-04-03T20:55:57;9.5;100.0
22674;DHT22;11504;43.334;21.918;2023-04-03T21:00:36;9.5;100.0
22674;DHT22;11504;43.334;21.918;2023-04-03T21:05:15;9.5;100.0
22674;DHT22;11504;43.334;21.918;2023-04-03T21:21:02;9.5;100.0
22674;DHT22;11504;43.334;21.918;2023-04-03T21:25:41;9.5;100.0
22674;DHT22;11504;43.334;21.918;2023-04-03T21:30:18;9.3;100.0
22674;DHT22;11504;43.334;21.918;2023-04-03T21:34:54;9.3;100.0
22674;DHT22;11504;43.334;21.918;2023-04-03T21:39:32;9.1;100.0
22674;DHT22;11504;43.334;21.918;2023-04-03T21:44:10;9.1;100.0
22674;DHT22;11504;43.334;21.918;2023-04-03T21:48:47;9.1;100.0
22674;DHT22;11504;43.334;21.918;2023-04-03T21:53:23;9.1;100.0
22674;DHT22;11504;43.334;21.918;2023-04-03T21:58:00;9.1;100.0
22674;DHT22;11504;43.334;21.918;2023-04-03T22:02:39;9.1;100.0
22674;DHT22;11504;43.334;21.918;2023-04-03T22:07:15;9.1;100.0
22674;DHT22;11504;43.334;21.918;2023-04-03T22:11:52;9.0;100.0
22674;DHT22;11504;43.334;21.918;2023-04-03T22:16:29;9.0;100.0
22674;DHT22;11504;43.334;21.918;2023-04-03T22:21:05;9.0;100.0
22674;DHT22;11504;43.334;21.918;2023-04-03T22:25:42;9.0;100.0
22674;DHT22;11504;43.334;21.918;2023-04-03T22:30:30;8.9;100.0
22674;DHT22;11504;43.334;21.918;2023-04-03T22:35:08;8.9;100.0
22674;DHT22;11504;43.334;21.918;2023-04-03T22:39:44;8.8;100.0
22674;DHT22;11504;43.334;21.918;2023-04-03T22:44:21;8.8;100.0
22674;DHT22;11504;43.334;21.918;2023-04-03T22:48:57;8.6;100.0
22674;DHT22;11504;43.334;21.918;2023-04-03T22:53:34;8.6;100.0
22674;DHT22;11504;43.334;21.918;2023-04-03T22:58:12;8.6;100.0
22674;DHT22;11504;43.334;21.918;2023-04-03T23:02:48;8.4;100.0
22674;DHT22;11504;43.334;21.918;2023-04-03T23:07:25;8.4;100.0
22674;DHT22;11504;43.334;21.918;2023-04-03T23:12:01;8.3;100.0
22674;DHT22;11504;43.334;21.918;2023-04-03T23:16:39;8.3;100.0
22674;DHT22;11504;43.334;21.918;2023-04-03T23:21:15;8.2;100.0
22674;DHT22;11504;43.334;21.918;2023-04-03T23:25:53;8.2;100.0
22674;DHT22;11504;43.334;21.918;2023-04-03T23:30:37;8.0;100.0
22674;DHT22;11504;43.334;21.918;2023-04-03T23:35:14;8.0;100.0
22674;DHT22;11504;43.334;21.918;2023-04-03T23:39:51;7.7;100.0
22674;DHT22;11504;43.334;21.918;2023-04-03T23:44:28;7.7;100.0
22674;DHT22;11504;43.334;21.918;2023-04-03T23:49:05;7.4;100.0
22674;DHT22;11504;43.334;21.918;2023-04-03T23:53:42;7.4;100.0
22674;DHT22;11504;43.334;21.918;2023-04-03T23:58:18;7.4;100.0
